Terminal Aerodrome Forecast
Issued by NWS Atlanta, GA

Home | Current Version | Previous Version | Text Only | Print | Product List | Glossary On
Versions: 1 2 3 4 5 6 7 8 9 10 11 12 13 14 15 16 17 18
267
FTUS42 KFFC 261139
TAFMCN
TAF
KMCN 261139Z 2612/2712 10003KT P6SM BKN010 BKN020
     FM261500 14006KT P6SM BKN060
     FM261900 16007KT P6SM VCSH SCT045
      TEMPO 2623/2703 6SM -TSRA OVC035CB
     FM270400 21002KT 6SM BR VCSH BKN050 BKN100
     FM270900 20002KT P6SM OVC100=

USA.gov is the U.S. government's official web portal to all federal, state and local government web resources and services.